sensor_id;sensor_type;location;lat;lon;timestamp;temperature;humidity
15274;DHT22;7738;49.532;11.156;2023-05-14T00:02:03;7.30;99.90
15274;DHT22;7738;49.532;11.156;2023-05-14T00:04:33;7.30;99.90
15274;DHT22;7738;49.532;11.156;2023-05-14T00:07:03;7.00;99.90
15274;DHT22;7738;49.532;11.156;2023-05-14T00:09:33;7.20;99.90
15274;DHT22;7738;49.532;11.156;2023-05-14T00:12:04;7.10;99.90
15274;DHT22;7738;49.532;11.156;2023-05-14T00:14:34;7.10;99.90
15274;DHT22;7738;49.532;11.156;2023-05-14T00:17:07;7.10;99.90
15274;DHT22;7738;49.532;11.156;2023-05-14T00:19:37;7.10;99.90
15274;DHT22;7738;49.532;11.156;2023-05-14T00:22:08;7.10;99.90
15274;DHT22;7738;49.532;11.156;2023-05-14T00:24:38;7.10;99.90
15274;DHT22;7738;49.532;11.156;2023-05-14T00:27:08;7.20;99.90
15274;DHT22;7738;49.532;11.156;2023-05-14T00:29:39;7.30;99.90
15274;DHT22;7738;49.532;11.156;2023-05-14T00:32:12;7.30;99.90
15274;DHT22;7738;49.532;11.156;2023-05-14T00:34:42;7.30;99.90
15274;DHT22;7738;49.532;11.156;2023-05-14T00:37:12;7.30;99.90
15274;DHT22;7738;49.532;11.156;2023-05-14T00:39:42;8.30;99.90
15274;DHT22;7738;49.532;11.156;2023-05-14T00:42:12;7.20;99.90
15274;DHT22;7738;49.532;11.156;2023-05-14T00:44:42;7.20;99.90
15274;DHT22;7738;49.532;11.156;2023-05-14T00:47:15;7.10;99.90
15274;DHT22;7738;49.532;11.156;2023-05-14T00:49:45;7.10;99.90
15274;DHT22;7738;49.532;11.156;2023-05-14T00:52:15;7.10;99.90
15274;DHT22;7738;49.532;11.156;2023-05-14T00:54:47;7.10;99.90
15274;DHT22;7738;49.532;11.156;2023-05-14T00:57:18;7.10;99.90
15274;DHT22;7738;49.532;11.156;2023-05-14T00:59:48;7.10;99.90
15274;DHT22;7738;49.532;11.156;2023-05-14T01:02:21;7.10;99.90
15274;DHT22;7738;49.532;11.156;2023-05-14T01:04:51;7.10;99.90
15274;DHT22;7738;49.532;11.156;2023-05-14T01:07:32;7.00;99.90
15274;DHT22;7738;49.532;11.156;2023-05-14T01:10:09;7.00;99.90
15274;DHT22;7738;49.532;11.156;2023-05-14T01:12:54;7.00;99.90
15274;DHT22;7738;49.532;11.156;2023-05-14T01:15:29;7.00;99.90
15274;DHT22;7738;49.532;11.156;2023-05-14T01:18:04;7.00;99.90
15274;DHT22;7738;49.532;11.156;2023-05-14T01:20:36;7.10;99.90
15274;DHT22;7738;49.532;11.156;2023-05-14T01:23:09;7.10;99.90
15274;DHT22;7738;49.532;11.156;2023-05-14T01:25:41;6.90;99.90
15274;DHT22;7738;49.532;11.156;2023-05-14T01:28:15;7.20;99.90
15274;DHT22;7738;49.532;11.156;2023-05-14T01:30:56;7.30;99.90
15274;DHT22;7738;49.532;11.156;2023-05-14T01:33:28;7.30;99.90
15274;DHT22;7738;49.532;11.156;2023-05-14T01:36:00;7.40;99.90
15274;DHT22;7738;49.532;11.156;2023-05-14T01:38:34;7.40;99.90
15274;DHT22;7738;49.532;11.156;2023-05-14T01:41:05;7.50;99.90
15274;DHT22;7738;49.532;11.156;2023-05-14T01:43:36;7.60;99.90
15274;DHT22;7738;49.532;11.156;2023-05-14T01:46:07;7.70;99.90
15274;DHT22;7738;49.532;11.156;2023-05-14T01:48:37;7.70;99.90
15274;DHT22;7738;49.532;11.156;2023-05-14T01:51:07;7.60;99.90
15274;DHT22;7738;49.532;11.156;2023-05-14T01:53:43;7.60;99.90
15274;DHT22;7738;49.532;11.156;2023-05-14T01:56:13;7.50;99.90
15274;DHT22;7738;49.532;11.156;2023-05-14T01:58:43;7.50;99.90
15274;DHT22;7738;49.532;11.156;2023-05-14T02:01:13;7.60;99.90
15274;DHT22;7738;49.532;11.156;2023-05-14T02:03:43;7.60;99.90
15274;DHT22;7738;49.532;11.156;2023-05-14T02:06:14;7.70;99.90
15274;DHT22;7738;49.532;11.156;2023-05-14T02:08:46;7.80;99.90
15274;DHT22;7738;49.532;11.156;2023-05-14T02:11:16;7.80;99.90
15274;DHT22;7738;49.532;11.156;2023-05-14T02:13:47;7.90;99.90
15274;DHT22;7738;49.532;11.156;2023-05-14T02:16:18;7.90;99.90
15274;DHT22;7738;49.532;11.156;2023-05-14T02:18:50;7.90;99.90
15274;DHT22;7738;49.532;11.156;2023-05-14T02:21:21;7.90;99.90
15274;DHT22;7738;49.532;11.156;2023-05-14T02:23:53;7.90;99.90
15274;DHT22;7738;49.532;11.156;2023-05-14T02:26:23;8.00;99.90
15274;DHT22;7738;49.532;11.156;2023-05-14T02:28:53;8.30;99.90
15274;DHT22;7738;49.532;11.156;2023-05-14T02:31:24;7.80;99.90
15274;DHT22;7738;49.532;11.156;2023-05-14T02:33:54;8.00;99.90
15274;DHT22;7738;49.532;11.156;2023-05-14T02:36:24;8.00;99.90
15274;DHT22;7738;49.532;11.156;2023-05-14T02:38:58;8.00;99.90
15274;DHT22;7738;49.532;11.156;2023-05-14T02:41:28;8.00;99.90
15274;DHT22;7738;49.532;11.156;2023-05-14T02:43:58;8.10;99.90
15274;DHT22;7738;49.532;11.156;2023-05-14T02:46:29;8.10;99.90
15274;DHT22;7738;49.532;11.156;2023-05-14T02:49:00;8.10;99.90
15274;DHT22;7738;49.532;11.156;2023-05-14T02:51:31;8.10;99.90
15274;DHT22;7738;49.532;11.156;2023-05-14T02:54:04;8.20;99.90
15274;DHT22;7738;49.532;11.156;2023-05-14T02:56:34;8.20;99.90
15274;DHT22;7738;49.532;11.156;2023-05-14T02:59:04;8.20;99.90
15274;DHT22;7738;49.532;11.156;2023-05-14T03:01:35;8.30;99.90
15274;DHT22;7738;49.532;11.156;2023-05-14T03:04:06;8.30;99.90
15274;DHT22;7738;49.532;11.156;2023-05-14T03:06:36;8.30;99.90
15274;DHT22;7738;49.532;11.156;2023-05-14T03:09:09;8.30;99.90
15274;DHT22;7738;49.532;11.156;2023-05-14T03:11:39;8.30;99.90
15274;DHT22;7738;49.532;11.156;2023-05-14T03:14:09;8.40;99.90
15274;DHT22;7738;49.532;11.156;2023-05-14T03:16:39;8.40;99.90
15274;DHT22;7738;49.532;11.156;2023-05-14T03:19:09;8.40;99.90
15274;DHT22;7738;49.532;11.156;2023-05-14T03:21:39;8.40;99.90
15274;DHT22;7738;49.532;11.156;2023-05-14T03:24:13;8.40;99.90
15274;DHT22;7738;49.532;11.156;2023-05-14T03:26:43;8.40;99.90
15274;DHT22;7738;49.532;11.156;2023-05-14T03:29:13;8.40;99.90
15274;DHT22;7738;49.532;11.156;2023-05-14T03:31:44;8.40;99.90
15274;DHT22;7738;49.532;11.156;2023-05-14T03:34:14;8.40;99.90
15274;DHT22;7738;49.532;11.156;2023-05-14T03:36:44;8.40;99.90
15274;DHT22;7738;49.532;11.156;2023-05-14T03:39:16;8.40;99.90
15274;DHT22;7738;49.532;11.156;2023-05-14T03:41:47;8.40;99.90
15274;DHT22;7738;49.532;11.156;2023-05-14T03:44:17;8.40;99.90
15274;DHT22;7738;49.532;11.156;2023-05-14T03:46:47;8.40;99.90
15274;DHT22;7738;49.532;11.156;2023-05-14T03:49:18;8.40;99.90
15274;DHT22;7738;49.532;11.156;2023-05-14T03:51:48;8.40;99.90
15274;DHT22;7738;49.532;11.156;2023-05-14T03:54:20;8.40;99.90
15274;DHT22;7738;49.532;11.156;2023-05-14T03:56:50;8.50;99.90
15274;DHT22;7738;49.532;11.156;2023-05-14T03:59:20;8.50;99.90
15274;DHT22;7738;49.532;11.156;2023-05-14T04:01:52;8.40;99.90
15274;DHT22;7738;49.532;11.156;2023-05-14T04:04:25;8.50;99.90
15274;DHT22;7738;49.532;11.156;2023-05-14T04:06:55;8.50;99.90
15274;DHT22;7738;49.532;11.156;2023-05-14T04:09:30;8.50;99.90
15274;DHT22;7738;49.532;11.156;2023-05-14T04:12:00;8.50;99.90
15274;DHT22;7738;49.532;11.156;2023-05-14T04:14:30;8.50;99.90
15274;DHT22;7738;49.532;11.156;2023-05-14T04:17:00;8.60;99.90
15274;DHT22;7738;49.532;11.156;2023-05-14T04:19:30;8.50;99.90
15274;DHT22;7738;49.532;11.156;2023-05-14T04:22:02;8.60;99.90
15274;DHT22;7738;49.532;11.156;2023-05-14T04:24:35;8.70;99.90
15274;DHT22;7738;49.532;11.156;2023-05-14T04:27:05;8.70;99.90
15274;DHT22;7738;49.532;11.156;2023-05-14T04:29:35;8.70;99.90
15274;DHT22;7738;49.532;11.156;2023-05-14T04:32:05;8.70;99.90
15274;DHT22;7738;49.532;11.156;2023-05-14T04:34:36;8.80;99.90
15274;DHT22;7738;49.532;11.156;2023-05-14T04:37:07;8.80;99.90
15274;DHT22;7738;49.532;11.156;2023-05-14T04:39:40;8.90;99.90
15274;DHT22;7738;49.532;11.156;2023-05-14T04:42:10;9.00;99.90
15274;DHT22;7738;49.532;11.156;2023-05-14T04:44:40;9.00;99.90
15274;DHT22;7738;49.532;11.156;2023-05-14T04:47:10;9.00;99.90
15274;DHT22;7738;49.532;11.156;2023-05-14T04:49:40;9.10;99.90
15274;DHT22;7738;49.532;11.156;2023-05-14T04:52:10;9.00;99.90
15274;DHT22;7738;49.532;11.156;2023-05-14T04:54:42;9.10;99.90
15274;DHT22;7738;49.532;11.156;2023-05-14T04:57:12;9.10;99.90
15274;DHT22;7738;49.532;11.156;2023-05-14T04:59:42;9.10;99.90
15274;DHT22;7738;49.532;11.156;2023-05-14T05:02:12;9.10;99.90
15274;DHT22;7738;49.532;11.156;2023-05-14T05:04:43;9.20;99.90
15274;DHT22;7738;49.532;11.156;2023-05-14T05:07:13;9.20;99.90
15274;DHT22;7738;49.532;11.156;2023-05-14T05:09:46;9.30;99.90
15274;DHT22;7738;49.532;11.156;2023-05-14T05:12:16;9.30;99.90
15274;DHT22;7738;49.532;11.156;2023-05-14T05:14:47;9.30;99.90
15274;DHT22;7738;49.532;11.156;2023-05-14T05:17:17;9.30;99.90
15274;DHT22;7738;49.532;11.156;2023-05-14T05:19:47;9.40;99.90
15274;DHT22;7738;49.532;11.156;2023-05-14T05:22:18;9.50;99.90
15274;DHT22;7738;49.532;11.156;2023-05-14T05:24:51;9.60;99.90
15274;DHT22;7738;49.532;11.156;2023-05-14T05:27:21;9.60;99.90
15274;DHT22;7738;49.532;11.156;2023-05-14T05:29:51;9.60;99.90
15274;DHT22;7738;49.532;11.156;2023-05-14T05:32:21;9.70;99.90
15274;DHT22;7738;49.532;11.156;2023-05-14T05:34:51;9.70;99.90
15274;DHT22;7738;49.532;11.156;2023-05-14T05:37:23;9.80;99.90
15274;DHT22;7738;49.532;11.156;2023-05-14T05:39:58;9.80;99.90
15274;DHT22;7738;49.532;11.156;2023-05-14T05:42:30;9.90;99.90
15274;DHT22;7738;49.532;11.156;2023-05-14T05:45:00;10.00;99.90
15274;DHT22;7738;49.532;11.156;2023-05-14T05:47:31;10.10;99.90
15274;DHT22;7738;49.532;11.156;2023-05-14T05:50:01;10.20;99.90
15274;DHT22;7738;49.532;11.156;2023-05-14T05:52:31;10.30;99.90
15274;DHT22;7738;49.532;11.156;2023-05-14T05:55:05;10.40;99.90
15274;DHT22;7738;49.532;11.156;2023-05-14T05:57:35;10.60;99.90
15274;DHT22;7738;49.532;11.156;2023-05-14T06:00:07;10.70;99.90
15274;DHT22;7738;49.532;11.156;2023-05-14T06:02:41;10.90;99.90
15274;DHT22;7738;49.532;11.156;2023-05-14T06:05:12;11.00;99.90
15274;DHT22;7738;49.532;11.156;2023-05-14T06:07:42;11.20;99.90
15274;DHT22;7738;49.532;11.156;2023-05-14T06:10:15;11.30;99.90
15274;DHT22;7738;49.532;11.156;2023-05-14T06:12:45;11.40;99.90
15274;DHT22;7738;49.532;11.156;2023-05-14T06:15:15;11.50;99.90
15274;DHT22;7738;49.532;11.156;2023-05-14T06:17:45;11.70;99.90
15274;DHT22;7738;49.532;11.156;2023-05-14T06:20:15;11.70;99.90
15274;DHT22;7738;49.532;11.156;2023-05-14T06:22:45;11.80;99.90
15274;DHT22;7738;49.532;11.156;2023-05-14T06:25:18;11.80;99.90
15274;DHT22;7738;49.532;11.156;2023-05-14T06:27:49;9.80;99.90
15274;DHT22;7738;49.532;11.156;2023-05-14T06:30:19;11.90;99.90
15274;DHT22;7738;49.532;11.156;2023-05-14T06:32:49;12.10;99.90
15274;DHT22;7738;49.532;11.156;2023-05-14T06:35:20;12.30;99.90
15274;DHT22;7738;49.532;11.156;2023-05-14T06:37:50;12.50;99.90
15274;DHT22;7738;49.532;11.156;2023-05-14T06:40:22;12.70;99.90
15274;DHT22;7738;49.532;11.156;2023-05-14T06:42:52;12.80;99.90
15274;DHT22;7738;49.532;11.156;2023-05-14T06:45:22;12.80;99.90
15274;DHT22;7738;49.532;11.156;2023-05-14T06:47:52;13.00;99.90
15274;DHT22;7738;49.532;11.156;2023-05-14T06:50:23;13.10;99.90
15274;DHT22;7738;49.532;11.156;2023-05-14T06:52:53;13.20;99.90
15274;DHT22;7738;49.532;11.156;2023-05-14T06:55:26;13.20;99.90
15274;DHT22;7738;49.532;11.156;2023-05-14T06:57:56;13.20;99.90
15274;DHT22;7738;49.532;11.156;2023-05-14T07:00:26;13.40;99.90
15274;DHT22;7738;49.532;11.156;2023-05-14T07:02:56;13.40;99.90
15274;DHT22;7738;49.532;11.156;2023-05-14T07:05:26;13.50;99.90
15274;DHT22;7738;49.532;11.156;2023-05-14T07:07:56;13.40;99.90
15274;DHT22;7738;49.532;11.156;2023-05-14T07:10:29;13.40;99.90
15274;DHT22;7738;49.532;11.156;2023-05-14T07:12:59;13.50;99.90
15274;DHT22;7738;49.532;11.156;2023-05-14T07:15:29;13.60;99.90
15274;DHT22;7738;49.532;11.156;2023-05-14T07:17:59;13.40;99.90
15274;DHT22;7738;49.532;11.156;2023-05-14T07:20:30;13.40;99.90
15274;DHT22;7738;49.532;11.156;2023-05-14T07:23:00;13.30;99.90
15274;DHT22;7738;49.532;11.156;2023-05-14T07:25:32;13.30;99.90
15274;DHT22;7738;49.532;11.156;2023-05-14T07:28:03;13.40;99.90
15274;DHT22;7738;49.532;11.156;2023-05-14T07:30:33;13.40;99.90
15274;DHT22;7738;49.532;11.156;2023-05-14T07:33:03;13.30;99.90
15274;DHT22;7738;49.532;11.156;2023-05-14T07:35:33;13.20;99.90
15274;DHT22;7738;49.532;11.156;2023-05-14T07:38:03;13.20;99.90
15274;DHT22;7738;49.532;11.156;2023-05-14T07:40:36;13.30;99.90
15274;DHT22;7738;49.532;11.156;2023-05-14T07:43:06;13.30;99.90
15274;DHT22;7738;49.532;11.156;2023-05-14T07:45:37;13.30;99.90
15274;DHT22;7738;49.532;11.156;2023-05-14T07:48:07;13.20;99.90
15274;DHT22;7738;49.532;11.156;2023-05-14T07:55:41;13.30;99.90
15274;DHT22;7738;49.532;11.156;2023-05-14T07:58:11;13.70;99.90
15274;DHT22;7738;49.532;11.156;2023-05-14T08:03:12;15.80;99.90
15274;DHT22;7738;49.532;11.156;2023-05-14T08:10:46;13.50;99.90
15274;DHT22;7738;49.532;11.156;2023-05-14T08:13:16;13.50;99.90
15274;DHT22;7738;49.532;11.156;2023-05-14T08:15:46;13.20;99.90
15274;DHT22;7738;49.532;11.156;2023-05-14T08:20:46;13.40;99.90
15274;DHT22;7738;49.532;11.156;2023-05-14T08:23:17;13.00;99.90
15274;DHT22;7738;49.532;11.156;2023-05-14T08:28:19;12.90;99.90
15274;DHT22;7738;49.532;11.156;2023-05-14T08:30:49;13.10;99.90
15274;DHT22;7738;49.532;11.156;2023-05-14T08:35:51;13.00;99.90
15274;DHT22;7738;49.532;11.156;2023-05-14T08:40:55;13.00;99.90
15274;DHT22;7738;49.532;11.156;2023-05-14T08:43:36;12.90;99.90
15274;DHT22;7738;49.532;11.156;2023-05-14T08:46:13;12.90;99.90
15274;DHT22;7738;49.532;11.156;2023-05-14T08:48:47;12.90;99.90
15274;DHT22;7738;49.532;11.156;2023-05-14T08:56:21;13.00;99.90
15274;DHT22;7738;49.532;11.156;2023-05-14T08:58:54;13.20;99.90
15274;DHT22;7738;49.532;11.156;2023-05-14T09:21:35;13.80;99.90
15274;DHT22;7738;49.532;11.156;2023-05-14T09:29:09;14.30;99.90
15274;DHT22;7738;49.532;11.156;2023-05-14T09:51:47;14.20;99.90
15274;DHT22;7738;49.532;11.156;2023-05-14T09:59:24;14.30;99.90
15274;DHT22;7738;49.532;11.156;2023-05-14T10:09:27;14.60;99.90
15274;DHT22;7738;49.532;11.156;2023-05-14T10:12:00;14.90;99.90
15274;DHT22;7738;49.532;11.156;2023-05-14T10:14:39;15.20;99.90
15274;DHT22;7738;49.532;11.156;2023-05-14T10:17:11;15.30;99.90
15274;DHT22;7738;49.532;11.156;2023-05-14T10:19:45;15.40;99.90
15274;DHT22;7738;49.532;11.156;2023-05-14T10:22:18;15.80;99.90
15274;DHT22;7738;49.532;11.156;2023-05-14T10:27:22;16.50;99.90
15274;DHT22;7738;49.532;11.156;2023-05-14T10:29:55;16.70;99.90
15274;DHT22;7738;49.532;11.156;2023-05-14T10:32:26;17.20;99.90
15274;DHT22;7738;49.532;11.156;2023-05-14T10:35:00;18.10;99.90
15274;DHT22;7738;49.532;11.156;2023-05-14T10:37:31;18.10;98.70
15274;DHT22;7738;49.532;11.156;2023-05-14T10:40:02;18.00;98.10
15274;DHT22;7738;49.532;11.156;2023-05-14T10:42:34;18.00;97.40
15274;DHT22;7738;49.532;11.156;2023-05-14T10:45:10;18.00;97.20
15274;DHT22;7738;49.532;11.156;2023-05-14T10:47:42;17.80;96.30
15274;DHT22;7738;49.532;11.156;2023-05-14T10:50:14;17.50;96.60
15274;DHT22;7738;49.532;11.156;2023-05-14T10:52:44;17.40;98.20
15274;DHT22;7738;49.532;11.156;2023-05-14T10:55:15;17.40;98.60
15274;DHT22;7738;49.532;11.156;2023-05-14T10:57:46;17.30;99.90
15274;DHT22;7738;49.532;11.156;2023-05-14T11:00:18;16.70;99.90
15274;DHT22;7738;49.532;11.156;2023-05-14T11:02:49;17.20;99.90
15274;DHT22;7738;49.532;11.156;2023-05-14T11:05:24;17.40;99.90
15274;DHT22;7738;49.532;11.156;2023-05-14T11:07:56;17.50;99.90
15274;DHT22;7738;49.532;11.156;2023-05-14T11:12:57;17.40;99.90
15274;DHT22;7738;49.532;11.156;2023-05-14T11:15:30;17.30;99.90
15274;DHT22;7738;49.532;11.156;2023-05-14T11:23:01;16.80;99.90
15274;DHT22;7738;49.532;11.156;2023-05-14T11:25:31;17.10;99.90
15274;DHT22;7738;49.532;11.156;2023-05-14T11:28:01;17.30;99.90
15274;DHT22;7738;49.532;11.156;2023-05-14T11:30:34;17.10;99.90
15274;DHT22;7738;49.532;11.156;2023-05-14T11:33:04;16.80;99.90
15274;DHT22;7738;49.532;11.156;2023-05-14T11:35:35;16.60;97.70
15274;DHT22;7738;49.532;11.156;2023-05-14T11:38:05;16.40;99.90
15274;DHT22;7738;49.532;11.156;2023-05-14T11:45:38;16.10;99.90
15274;DHT22;7738;49.532;11.156;2023-05-14T11:48:12;16.10;99.90
15274;DHT22;7738;49.532;11.156;2023-05-14T11:53:18;16.10;99.90
15274;DHT22;7738;49.532;11.156;2023-05-14T12:00:53;16.20;99.90
15274;DHT22;7738;49.532;11.156;2023-05-14T12:05:57;16.80;99.90
15274;DHT22;7738;49.532;11.156;2023-05-14T12:08:28;16.30;99.90
15274;DHT22;7738;49.532;11.156;2023-05-14T12:11:00;16.00;99.90
15274;DHT22;7738;49.532;11.156;2023-05-14T12:13:31;16.30;99.90
15274;DHT22;7738;49.532;11.156;2023-05-14T12:16:04;16.20;99.90
15274;DHT22;7738;49.532;11.156;2023-05-14T12:21:05;16.50;99.90
15274;DHT22;7738;49.532;11.156;2023-05-14T12:31:14;16.40;99.90
15274;DHT22;7738;49.532;11.156;2023-05-14T12:33:44;16.40;99.90
15274;DHT22;7738;49.532;11.156;2023-05-14T12:46:22;16.20;99.90
15274;DHT22;7738;49.532;11.156;2023-05-14T13:01:27;16.30;99.90
15274;DHT22;7738;49.532;11.156;2023-05-14T13:14:01;16.70;99.90
15274;DHT22;7738;49.532;11.156;2023-05-14T13:16:34;16.60;99.90
15274;DHT22;7738;49.532;11.156;2023-05-14T13:31:39;17.20;99.90
15274;DHT22;7738;49.532;11.156;2023-05-14T13:46:46;18.20;99.90
15274;DHT22;7738;49.532;11.156;2023-05-14T14:27:09;20.70;79.20
15274;DHT22;7738;49.532;11.156;2023-05-14T15:22:30;17.30;97.30
15274;DHT22;7738;49.532;11.156;2023-05-14T17:14:22;15.60;99.90
15274;DHT22;7738;49.532;11.156;2023-05-14T17:21:56;15.70;99.90
15274;DHT22;7738;49.532;11.156;2023-05-14T17:31:57;15.60;99.90
15274;DHT22;7738;49.532;11.156;2023-05-14T17:34:32;15.50;96.20
15274;DHT22;7738;49.532;11.156;2023-05-14T18:34:55;13.50;99.90
15274;DHT22;7738;49.532;11.156;2023-05-14T18:50:00;13.40;99.90
15274;DHT22;7738;49.532;11.156;2023-05-14T18:52:31;13.60;99.90
15274;DHT22;7738;49.532;11.156;2023-05-14T19:05:06;13.50;99.90
15274;DHT22;7738;49.532;11.156;2023-05-14T19:10:09;13.00;99.90
15274;DHT22;7738;49.532;11.156;2023-05-14T19:15:10;13.00;99.90
15274;DHT22;7738;49.532;11.156;2023-05-14T19:30:18;12.70;99.90
15274;DHT22;7738;49.532;11.156;2023-05-14T19:35:22;12.70;99.90
15274;DHT22;7738;49.532;11.156;2023-05-14T19:47:56;12.50;99.90
15274;DHT22;7738;49.532;11.156;2023-05-14T19:50:28;12.60;99.90
15274;DHT22;7738;49.532;11.156;2023-05-14T19:52:59;12.90;99.90
15274;DHT22;7738;49.532;11.156;2023-05-14T19:55:30;12.30;99.90
15274;DHT22;7738;49.532;11.156;2023-05-14T19:58:00;12.50;99.90
15274;DHT22;7738;49.532;11.156;2023-05-14T20:00:30;12.40;99.90
15274;DHT22;7738;49.532;11.156;2023-05-14T20:03:00;11.90;99.90
15274;DHT22;7738;49.532;11.156;2023-05-14T20:05:34;12.00;99.90
15274;DHT22;7738;49.532;11.156;2023-05-14T20:10:35;12.00;99.90
15274;DHT22;7738;49.532;11.156;2023-05-14T20:13:05;12.00;99.90
15274;DHT22;7738;49.532;11.156;2023-05-14T20:15:35;12.50;99.90
15274;DHT22;7738;49.532;11.156;2023-05-14T20:18:05;11.70;99.90
15274;DHT22;7738;49.532;11.156;2023-05-14T20:20:38;12.10;99.90
15274;DHT22;7738;49.532;11.156;2023-05-14T20:23:08;12.30;99.90
15274;DHT22;7738;49.532;11.156;2023-05-14T20:25:38;11.40;99.90
15274;DHT22;7738;49.532;11.156;2023-05-14T20:30:39;12.00;99.90
15274;DHT22;7738;49.532;11.156;2023-05-14T20:33:09;12.20;99.90
15274;DHT22;7738;49.532;11.156;2023-05-14T20:35:43;11.80;99.90
15274;DHT22;7738;49.532;11.156;2023-05-14T20:45:46;11.30;99.90
15274;DHT22;7738;49.532;11.156;2023-05-14T20:48:16;12.00;99.90
15274;DHT22;7738;49.532;11.156;2023-05-14T20:50:50;11.80;99.90
15274;DHT22;7738;49.532;11.156;2023-05-14T20:53:20;12.10;99.90
15274;DHT22;7738;49.532;11.156;2023-05-14T20:58:21;11.70;99.90
15274;DHT22;7738;49.532;11.156;2023-05-14T21:00:51;10.40;99.90
15274;DHT22;7738;49.532;11.156;2023-05-14T21:03:22;11.80;99.90
15274;DHT22;7738;49.532;11.156;2023-05-14T21:05:55;11.70;99.90
15274;DHT22;7738;49.532;11.156;2023-05-14T21:08:26;11.60;99.90
15274;DHT22;7738;49.532;11.156;2023-05-14T21:10:58;11.50;99.90
15274;DHT22;7738;49.532;11.156;2023-05-14T21:13:28;12.00;99.90
15274;DHT22;7738;49.532;11.156;2023-05-14T21:15:58;11.30;99.90
15274;DHT22;7738;49.532;11.156;2023-05-14T21:18:29;11.20;99.90
15274;DHT22;7738;49.532;11.156;2023-05-14T21:21:02;11.70;99.90
15274;DHT22;7738;49.532;11.156;2023-05-14T21:23:33;11.40;99.90
15274;DHT22;7738;49.532;11.156;2023-05-14T21:26:03;11.50;99.90
15274;DHT22;7738;49.532;11.156;2023-05-14T21:28:33;11.50;99.90
15274;DHT22;7738;49.532;11.156;2023-05-14T21:31:03;11.40;99.90
15274;DHT22;7738;49.532;11.156;2023-05-14T21:36:07;11.90;99.90
15274;DHT22;7738;49.532;11.156;2023-05-14T21:38:37;11.20;99.90
15274;DHT22;7738;49.532;11.156;2023-05-14T21:41:07;11.30;99.90
15274;DHT22;7738;49.532;11.156;2023-05-14T21:43:37;11.10;99.90
15274;DHT22;7738;49.532;11.156;2023-05-14T21:46:08;11.70;99.90
15274;DHT22;7738;49.532;11.156;2023-05-14T21:48:38;11.20;99.90
15274;DHT22;7738;49.532;11.156;2023-05-14T21:51:11;11.40;99.90
15274;DHT22;7738;49.532;11.156;2023-05-14T21:53:41;11.60;99.90
15274;DHT22;7738;49.532;11.156;2023-05-14T21:58:43;11.60;99.90
15274;DHT22;7738;49.532;11.156;2023-05-14T22:01:13;11.40;99.90
15274;DHT22;7738;49.532;11.156;2023-05-14T22:03:43;11.40;99.90
15274;DHT22;7738;49.532;11.156;2023-05-14T22:06:16;11.70;99.90
15274;DHT22;7738;49.532;11.156;2023-05-14T22:11:17;11.30;99.90
15274;DHT22;7738;49.532;11.156;2023-05-14T22:13:47;11.40;99.90
15274;DHT22;7738;49.532;11.156;2023-05-14T22:16:17;11.70;99.90
15274;DHT22;7738;49.532;11.156;2023-05-14T22:21:21;11.10;99.90
15274;DHT22;7738;49.532;11.156;2023-05-14T22:23:51;11.00;99.90
15274;DHT22;7738;49.532;11.156;2023-05-14T22:26:21;11.10;99.90
15274;DHT22;7738;49.532;11.156;2023-05-14T22:28:51;11.10;99.90
15274;DHT22;7738;49.532;11.156;2023-05-14T22:31:23;11.20;99.90
15274;DHT22;7738;49.532;11.156;2023-05-14T22:33:53;10.90;99.90
15274;DHT22;7738;49.532;11.156;2023-05-14T22:36:26;10.40;99.90
15274;DHT22;7738;49.532;11.156;2023-05-14T22:38:56;10.70;99.90
15274;DHT22;7738;49.532;11.156;2023-05-14T22:41:26;11.40;99.90
15274;DHT22;7738;49.532;11.156;2023-05-14T22:46:27;10.90;99.90
15274;DHT22;7738;49.532;11.156;2023-05-14T22:48:57;10.50;99.90
15274;DHT22;7738;49.532;11.156;2023-05-14T22:51:30;11.00;99.90
15274;DHT22;7738;49.532;11.156;2023-05-14T22:56:31;10.90;99.90
15274;DHT22;7738;49.532;11.156;2023-05-14T22:59:01;11.30;99.90
15274;DHT22;7738;49.532;11.156;2023-05-14T23:01:31;10.40;99.90
15274;DHT22;7738;49.532;11.156;2023-05-14T23:04:01;10.60;99.90
15274;DHT22;7738;49.532;11.156;2023-05-14T23:06:34;10.80;99.90
15274;DHT22;7738;49.532;11.156;2023-05-14T23:09:04;10.40;99.90
15274;DHT22;7738;49.532;11.156;2023-05-14T23:11:34;11.20;99.90
15274;DHT22;7738;49.532;11.156;2023-05-14T23:14:04;11.00;99.90
15274;DHT22;7738;49.532;11.156;2023-05-14T23:16:35;10.50;99.90
15274;DHT22;7738;49.532;11.156;2023-05-14T23:19:05;10.50;99.90
15274;DHT22;7738;49.532;11.156;2023-05-14T23:21:38;10.70;99.90
15274;DHT22;7738;49.532;11.156;2023-05-14T23:24:08;11.00;99.90
15274;DHT22;7738;49.532;11.156;2023-05-14T23:26:38;10.70;99.90
15274;DHT22;7738;49.532;11.156;2023-05-14T23:29:09;11.00;99.90
15274;DHT22;7738;49.532;11.156;2023-05-14T23:31:39;10.60;99.90
15274;DHT22;7738;49.532;11.156;2023-05-14T23:34:09;10.80;99.90
15274;DHT22;7738;49.532;11.156;2023-05-14T23:36:42;10.10;99.90
15274;DHT22;7738;49.532;11.156;2023-05-14T23:51:47;9.90;99.90
15274;DHT22;7738;49.532;11.156;2023-05-14T23:54:17;10.20;99.90
15274;DHT22;7738;49.532;11.156;2023-05-14T23:59:18;9.50;99.90
